createdAt,value
2023-06-17T00:01:03.793Z,97717.88
2023-06-17T00:06:05.041Z,97713.31
2023-06-17T00:11:06.349Z,97711.81
2023-06-17T00:16:07.684Z,97708.44
2023-06-17T00:21:10.102Z,97701.41
2023-06-17T00:26:11.613Z,97697.50
2023-06-17T00:31:12.910Z,97697.34
2023-06-17T00:36:14.210Z,97694.13
2023-06-17T00:41:15.540Z,97687.28
2023-06-17T00:46:16.850Z,97689.81
2023-06-17T00:51:18.155Z,97679.72
2023-06-17T00:56:19.679Z,97684.88
2023-06-17T01:01:20.942Z,97688.16
2023-06-17T01:06:25.258Z,97680.19
2023-06-17T01:11:26.494Z,97674.38
2023-06-17T01:16:27.808Z,97669.72
2023-06-17T01:21:32.588Z,97659.38
2023-06-17T01:26:33.831Z,97659.00
2023-06-17T01:31:35.239Z,97661.22
2023-06-17T01:36:36.504Z,97656.19
2023-06-17T01:41:37.775Z,97657.50
2023-06-17T01:46:39.090Z,97657.72
2023-06-17T01:51:40.318Z,97656.56
2023-06-17T01:56:41.590Z,97656.25
2023-06-17T02:01:42.849Z,97655.75
2023-06-17T02:06:44.081Z,97661.16
2023-06-17T02:11:45.553Z,97661.91
2023-06-17T02:16:46.790Z,97666.41
2023-06-17T02:21:47.991Z,97663.91
2023-06-17T02:26:50.610Z,97667.78
2023-06-17T02:31:52.601Z,97660.13
2023-06-17T02:36:57.565Z,97664.75
2023-06-17T02:41:58.980Z,97665.28
2023-06-17T02:47:00.523Z,97662.75
2023-06-17T02:52:01.833Z,97665.38
2023-06-17T02:57:03.304Z,97662.97
2023-06-17T03:02:04.722Z,97672.69
2023-06-17T03:07:06.016Z,97675.97
2023-06-17T03:12:07.245Z,97680.94
2023-06-17T03:17:09.040Z,97680.88
2023-06-17T03:22:10.546Z,97690.81
2023-06-17T03:27:12.298Z,97693.63
2023-06-17T03:32:13.549Z,97682.69
2023-06-17T03:37:14.826Z,97683.53
2023-06-17T03:42:16.108Z,97677.00
2023-06-17T03:47:17.351Z,97679.66
2023-06-17T03:52:18.599Z,97682.28
2023-06-17T03:57:19.814Z,97679.88
2023-06-17T04:02:21.117Z,97675.66
2023-06-17T04:07:22.609Z,97675.66
2023-06-17T04:12:23.976Z,97676.69
2023-06-17T04:17:25.245Z,97678.88
2023-06-17T04:22:26.469Z,97677.81
2023-06-17T04:27:27.807Z,97675.19
2023-06-17T04:32:29.659Z,97683.25
2023-06-17T04:37:31.024Z,97677.25
2023-06-17T04:42:34.678Z,97676.28
2023-06-17T04:47:36.531Z,97672.19
2023-06-17T04:52:37.925Z,97681.31
2023-06-17T04:57:39.274Z,97674.34
2023-06-17T05:02:40.955Z,97669.06
2023-06-17T05:07:42.487Z,97675.75
2023-06-17T05:12:43.754Z,97673.91
2023-06-17T05:17:45.366Z,97672.59
2023-06-17T05:22:46.691Z,97669.78
2023-06-17T05:27:47.930Z,97667.09
2023-06-17T05:32:49.288Z,97671.69
2023-06-17T05:37:50.575Z,97668.19
2023-06-17T05:42:51.958Z,97668.03
2023-06-17T05:47:53.432Z,97670.19
2023-06-17T05:52:54.725Z,97665.66
2023-06-17T05:57:55.955Z,97660.75
2023-06-17T06:02:57.264Z,97663.06
2023-06-17T06:07:58.540Z,97663.72
2023-06-17T06:13:00.586Z,97668.53
2023-06-17T06:18:01.883Z,97670.63
2023-06-17T06:23:03.337Z,97668.72
2023-06-17T06:28:04.762Z,97667.41
2023-06-17T06:33:07.741Z,97676.69
2023-06-17T06:38:09.021Z,97674.03
2023-06-17T06:43:10.292Z,97674.53
2023-06-17T06:48:11.621Z,97673.69
2023-06-17T06:53:13.606Z,97676.19
2023-06-17T06:58:14.799Z,97673.50
2023-06-17T07:03:16.184Z,97668.19
2023-06-17T07:08:17.453Z,97673.22
2023-06-17T07:13:18.697Z,97675.16
2023-06-17T07:18:19.976Z,97677.31
2023-06-17T07:23:21.307Z,97675.97
2023-06-17T07:28:23.104Z,97682.56
2023-06-17T07:33:24.459Z,97676.47
2023-06-17T07:38:26.221Z,97666.66
2023-06-17T07:43:27.412Z,97663.53
2023-06-17T07:48:29.071Z,97654.94
2023-06-17T07:53:30.354Z,97646.72
2023-06-17T07:58:31.634Z,97632.69
2023-06-17T08:03:33.033Z,97629.09
2023-06-17T08:08:34.361Z,97623.22
2023-06-17T08:13:35.726Z,97621.63
2023-06-17T08:18:36.969Z,97606.06
2023-06-17T08:23:38.208Z,97603.97
2023-06-17T08:28:39.462Z,97593.41
2023-06-17T08:33:40.703Z,97573.75
2023-06-17T08:38:41.960Z,97546.34
2023-06-17T08:43:43.207Z,97537.28
2023-06-17T08:48:44.502Z,97520.78
2023-06-17T08:53:45.956Z,97519.88
2023-06-17T08:58:48.526Z,97520.47
2023-06-17T09:03:49.808Z,97509.66
2023-06-17T09:08:51.676Z,97506.69
2023-06-17T09:13:53.121Z,97503.22
2023-06-17T09:18:54.471Z,97500.47
2023-06-17T09:23:55.836Z,97497.50
2023-06-17T09:28:57.112Z,97486.69
2023-06-17T09:33:58.396Z,97484.72
2023-06-17T09:38:59.696Z,97475.94
2023-06-17T09:44:01.347Z,97479.47
2023-06-17T09:49:03.807Z,97469.59
2023-06-17T09:54:05.296Z,97464.84
2023-06-17T09:59:10.761Z,97472.84
2023-06-17T10:04:12.113Z,97470.44
2023-06-17T10:09:14.804Z,97451.03
2023-06-17T10:14:16.129Z,97439.69
2023-06-17T10:19:17.994Z,97426.88
2023-06-17T10:24:19.562Z,97424.00
2023-06-17T10:29:21.741Z,97412.50
2023-06-17T10:34:23.237Z,97422.91
2023-06-17T10:39:24.533Z,97421.31
2023-06-17T10:44:26.695Z,97406.56
2023-06-17T10:49:27.936Z,97412.00
2023-06-17T10:54:29.208Z,97403.47
2023-06-17T10:59:30.451Z,97383.97
2023-06-17T11:04:33.029Z,97390.25
2023-06-17T11:09:34.561Z,97385.78
2023-06-17T11:14:38.017Z,97381.47
2023-06-17T11:19:39.303Z,97395.34
2023-06-17T11:24:41.030Z,97397.19
2023-06-17T11:29:46.235Z,97398.31
2023-06-17T11:34:47.510Z,97399.41
2023-06-17T11:39:48.916Z,97393.06
2023-06-17T11:44:50.244Z,97389.69
2023-06-17T11:49:51.842Z,97373.25
2023-06-17T11:54:53.519Z,97352.09
2023-06-17T11:59:54.822Z,97343.28
2023-06-17T12:04:56.500Z,97341.16
2023-06-17T12:09:57.917Z,97352.22
2023-06-17T12:15:00.907Z,97360.31
2023-06-17T12:20:06.858Z,97345.47
2023-06-17T12:25:08.100Z,97326.59
2023-06-17T12:30:09.396Z,97329.22
2023-06-17T12:35:15.687Z,97324.69
2023-06-17T12:40:17.299Z,97308.22
2023-06-17T12:45:18.984Z,97304.13
2023-06-17T12:50:20.537Z,97303.16
2023-06-17T12:55:21.997Z,97317.63
2023-06-17T13:00:23.681Z,97303.06
2023-06-17T13:05:24.994Z,97290.31
2023-06-17T13:10:26.262Z,97293.38
2023-06-17T13:15:30.624Z,97288.81
2023-06-17T13:20:31.911Z,97286.13
2023-06-17T13:25:33.179Z,97292.34
2023-06-17T13:30:34.471Z,97276.53
2023-06-17T13:35:36.176Z,97288.53
2023-06-17T13:40:37.437Z,97280.78
2023-06-17T13:45:39.242Z,97291.34
2023-06-17T13:50:40.509Z,97280.84
2023-06-17T13:55:42.300Z,97276.34
2023-06-17T14:00:43.556Z,97279.91
2023-06-17T14:05:44.922Z,97268.53
2023-06-17T14:10:46.242Z,97267.66
2023-06-17T14:15:47.511Z,97284.91
2023-06-17T14:20:48.790Z,97274.75
2023-06-17T14:25:50.295Z,97281.00
2023-06-17T14:30:52.158Z,97272.72
2023-06-17T14:35:53.436Z,97270.25
2023-06-17T14:40:54.657Z,97265.50
2023-06-17T14:45:55.915Z,97263.59
2023-06-17T14:50:57.162Z,97263.66
2023-06-17T14:55:58.402Z,97256.00
2023-06-17T15:00:59.700Z,97259.94
2023-06-17T15:06:00.950Z,97253.06
2023-06-17T15:11:02.269Z,97255.53
2023-06-17T15:16:03.541Z,97258.31
2023-06-17T15:21:04.763Z,97245.03
2023-06-17T15:26:06.040Z,97235.81
2023-06-17T15:31:08.236Z,97236.19
2023-06-17T15:36:09.519Z,97227.38
2023-06-17T15:41:10.846Z,97232.50
2023-06-17T15:46:12.109Z,97229.75
2023-06-17T15:51:13.332Z,97220.75
2023-06-17T15:56:14.578Z,97225.53
2023-06-17T16:01:15.983Z,97221.81
2023-06-17T16:06:17.260Z,97204.81
2023-06-17T16:11:19.575Z,97215.47
2023-06-17T16:16:21.012Z,97238.09
2023-06-17T16:21:22.516Z,97237.06
2023-06-17T16:26:23.788Z,97235.75
2023-06-17T16:31:25.040Z,97236.59
2023-06-17T16:36:28.263Z,97232.97
2023-06-17T16:41:31.243Z,97231.31
2023-06-17T16:46:32.720Z,97225.69
2023-06-17T16:51:34.029Z,97241.47
2023-06-17T16:56:35.529Z,97256.38
2023-06-17T17:01:36.991Z,97260.25
2023-06-17T17:06:38.375Z,97264.06
2023-06-17T17:11:40.815Z,97273.97
2023-06-17T17:16:42.161Z,97281.78
2023-06-17T17:21:43.454Z,97273.44
2023-06-17T17:26:44.703Z,97271.44
2023-06-17T17:31:46.013Z,97275.13
2023-06-17T17:36:47.219Z,97272.03
2023-06-17T17:41:48.420Z,97281.06
2023-06-17T17:46:49.664Z,97291.09
2023-06-17T17:51:50.930Z,97292.94
2023-06-17T17:56:52.211Z,97299.50
2023-06-17T18:01:53.521Z,97311.41
2023-06-17T18:06:54.776Z,97320.28
2023-06-17T18:11:55.987Z,97327.56
2023-06-17T18:16:57.320Z,97342.47
2023-06-17T18:21:58.736Z,97354.16
2023-06-17T18:27:00.002Z,97346.19
2023-06-17T18:32:01.461Z,97353.09
2023-06-17T18:37:02.697Z,97339.53
2023-06-17T18:42:03.944Z,97343.25
2023-06-17T18:47:05.247Z,97351.91
2023-06-17T18:52:06.536Z,97345.59
2023-06-17T18:57:07.869Z,97358.97
2023-06-17T19:02:09.174Z,97368.72
2023-06-17T19:07:10.545Z,97378.03
2023-06-17T19:12:11.774Z,97381.47
2023-06-17T19:17:13.092Z,97391.03
2023-06-17T19:22:14.433Z,97403.97
2023-06-17T19:27:15.976Z,97405.13
2023-06-17T19:32:17.190Z,97411.84
2023-06-17T19:37:18.420Z,97422.41
2023-06-17T19:42:19.960Z,97430.50
2023-06-17T19:47:21.168Z,97434.88
2023-06-17T19:52:22.426Z,97447.22
2023-06-17T19:57:23.725Z,97457.06
2023-06-17T20:02:25.022Z,97453.25
2023-06-17T20:07:26.226Z,97457.34
2023-06-17T20:12:27.486Z,97448.06
2023-06-17T20:17:28.747Z,97450.75
2023-06-17T20:22:30.019Z,97458.97
2023-06-17T20:27:31.320Z,97455.38
2023-06-17T20:32:32.721Z,97460.28
2023-06-17T20:37:34.115Z,97453.97
2023-06-17T20:42:36.862Z,97455.75
2023-06-17T20:47:38.294Z,97452.69
2023-06-17T20:52:39.610Z,97460.75
2023-06-17T20:57:41.213Z,97465.53
2023-06-17T21:02:42.525Z,97462.97
2023-06-17T21:07:44.986Z,97463.84
2023-06-17T21:12:46.559Z,97472.97
2023-06-17T21:17:47.925Z,97459.69
2023-06-17T21:22:49.192Z,97466.13
2023-06-17T21:27:50.495Z,97465.84
2023-06-17T21:32:51.825Z,97468.31
2023-06-17T21:37:53.243Z,97464.00
2023-06-17T21:42:54.552Z,97468.66
2023-06-17T21:47:55.861Z,97470.09
2023-06-17T21:52:57.310Z,97476.25
2023-06-17T21:57:58.634Z,97470.00
2023-06-17T22:03:00.091Z,97468.56
2023-06-17T22:08:01.396Z,97476.84
2023-06-17T22:13:02.669Z,97473.50
2023-06-17T22:18:04.028Z,97472.72
2023-06-17T22:23:05.425Z,97488.22
2023-06-17T22:28:06.674Z,97489.91
2023-06-17T22:33:08.121Z,97491.00
2023-06-17T22:38:09.482Z,97495.88
2023-06-17T22:43:11.085Z,97505.53
2023-06-17T22:48:12.329Z,97506.63
2023-06-17T22:53:13.618Z,97516.31
2023-06-17T22:58:14.836Z,97499.69
2023-06-17T23:03:16.065Z,97508.38
2023-06-17T23:08:17.386Z,97499.94
2023-06-17T23:13:18.645Z,97503.97
2023-06-17T23:18:19.875Z,97512.81
2023-06-17T23:23:21.938Z,97513.34
2023-06-17T23:28:24.185Z,97505.63
2023-06-17T23:33:26.578Z,97504.13
2023-06-17T23:38:30.382Z,97499.66
2023-06-17T23:43:31.856Z,97494.75
2023-06-17T23:48:33.205Z,97496.22
2023-06-17T23:53:34.779Z,97490.31
2023-06-17T23:58:36.062Z,97501.53
